createdAt,value
2022-11-08T00:30:03.465Z,101092.88
2022-11-08T00:44:51.656Z,101104.84
2022-11-08T01:17:17.267Z,101123.03
2022-11-08T04:51:49.975Z,101382.84
2022-11-08T04:54:53.871Z,101377.66
2022-11-08T04:57:37.979Z,101385.44
2022-11-08T05:00:25.135Z,101387.28
2022-11-08T05:24:38.192Z,101422.38
2022-11-08T05:27:22.166Z,101416.44
2022-11-08T05:30:47.424Z,101422.28
2022-11-08T05:34:27.843Z,101428.97
2022-11-08T05:38:18.996Z,101425.84
2022-11-08T05:41:34.413Z,101433.47
2022-11-08T05:56:02.752Z,101437.47
2022-11-08T06:11:52.760Z,101463.41
2022-11-08T06:48:21.326Z,101503.59
2022-11-08T06:58:11.386Z,101526.34
2022-11-08T07:24:22.020Z,101575.22
2022-11-08T07:28:46.317Z,101585.22
2022-11-08T07:43:21.554Z,101591.19
2022-11-08T07:47:19.173Z,101606.44
2022-11-08T07:50:02.400Z,101594.00
2022-11-08T07:52:43.281Z,101605.09
2022-11-08T07:55:37.560Z,101611.31
2022-11-08T07:58:12.840Z,101614.84
2022-11-08T08:00:53.811Z,101615.47
2022-11-08T08:03:25.101Z,101626.50
2022-11-08T08:06:05.287Z,101629.41
2022-11-08T08:08:38.591Z,101629.75
2022-11-08T08:11:17.449Z,101629.22
2022-11-08T08:13:48.781Z,101640.41
2022-11-08T08:16:30.443Z,101641.56
2022-11-08T08:19:10.648Z,101637.38
2022-11-08T08:21:51.797Z,101646.34
2022-11-08T08:24:50.712Z,101642.31
2022-11-08T08:27:50.226Z,101639.91
2022-11-08T08:31:07.563Z,101644.78
2022-11-08T08:37:47.491Z,101651.69
2022-11-08T08:40:47.411Z,101651.75
2022-11-08T08:43:32.302Z,101663.63
2022-11-08T08:50:19.898Z,101672.03
2022-11-08T08:53:51.447Z,101670.19
2022-11-08T09:02:49.321Z,101689.47
2022-11-08T09:11:15.146Z,101702.50
2022-11-08T09:13:54.123Z,101712.88
2022-11-08T09:17:07.011Z,101709.59
2022-11-08T09:19:57.195Z,101699.53
2022-11-08T09:22:54.653Z,101735.50
2022-11-08T09:25:51.608Z,101725.13
2022-11-08T09:28:50.940Z,101736.34
2022-11-08T09:31:51.138Z,101744.41
2022-11-08T09:34:35.354Z,101747.34
2022-11-08T09:37:25.342Z,101755.41
2022-11-08T09:40:38.787Z,101746.13
2022-11-08T09:43:33.674Z,101755.19
2022-11-08T09:51:27.946Z,101778.06
2022-11-08T09:54:06.662Z,101780.59
2022-11-08T09:56:48.440Z,101784.59
2022-11-08T09:59:41.439Z,101786.63
2022-11-08T10:02:43.084Z,101792.50
2022-11-08T10:05:47.526Z,101804.44
2022-11-08T10:09:07.210Z,101813.28
2022-11-08T10:11:47.581Z,101810.28
2022-11-08T10:14:46.909Z,101808.31
2022-11-08T10:18:33.760Z,101817.69
2022-11-08T10:21:38.671Z,101813.06
2022-11-08T10:24:41.973Z,101818.22
2022-11-08T10:27:43.428Z,101823.28
2022-11-08T10:30:34.218Z,101832.28
2022-11-08T10:33:19.364Z,101825.53
2022-11-08T10:36:05.457Z,101835.50
2022-11-08T10:42:58.776Z,101831.50
2022-11-08T10:45:59.174Z,101829.19
2022-11-08T10:49:15.987Z,101825.31
2022-11-08T10:51:54.379Z,101820.28
2022-11-08T10:55:06.668Z,101834.91
2022-11-08T10:58:57.924Z,101820.25
2022-11-08T11:05:38.528Z,101825.91
2022-11-08T11:08:22.286Z,101831.28
2022-11-08T11:10:59.349Z,101843.88
2022-11-08T11:13:39.561Z,101834.56
2022-11-08T11:16:19.336Z,101840.34
2022-11-08T11:18:53.651Z,101844.97
2022-11-08T11:21:28.190Z,101856.03
2022-11-08T11:24:16.613Z,101863.13
2022-11-08T11:27:23.702Z,101871.72
2022-11-08T11:30:39.714Z,101872.97
2022-11-08T11:33:45.222Z,101873.34
2022-11-08T11:36:36.183Z,101889.94
2022-11-08T11:39:54.167Z,101884.50
2022-11-08T11:43:10.933Z,101886.06
2022-11-08T11:46:43.270Z,101889.47
2022-11-08T11:49:35.660Z,101893.13
2022-11-08T11:52:17.629Z,101906.94
2022-11-08T11:54:51.338Z,101912.50
2022-11-08T11:57:45.489Z,101927.72
2022-11-08T12:39:01.450Z,101970.03
2022-11-08T12:41:51.648Z,101972.97
2022-11-08T12:44:39.453Z,101968.84
2022-11-08T12:47:35.152Z,101980.09
2022-11-08T12:50:34.419Z,101979.69
2022-11-08T12:53:07.855Z,101979.53
2022-11-08T12:55:42.996Z,101983.78
2022-11-08T12:58:34.789Z,101990.41
2022-11-08T13:01:17.580Z,101981.13
2022-11-08T13:04:22.910Z,101990.28
2022-11-08T13:07:09.245Z,101993.69
2022-11-08T13:09:51.702Z,101992.41
2022-11-08T13:12:30.681Z,101993.22
2022-11-08T13:15:05.956Z,102001.84
2022-11-08T13:17:37.755Z,102001.97
2022-11-08T13:20:36.871Z,102005.25
2022-11-08T13:23:50.042Z,102002.81
2022-11-08T13:26:59.400Z,102015.63
2022-11-08T13:30:21.847Z,102017.47
2022-11-08T13:33:50.927Z,102015.03
2022-11-08T13:41:22.134Z,102022.56
2022-11-08T13:44:15.046Z,102017.78
2022-11-08T13:47:46.723Z,102028.47
2022-11-08T13:50:40.014Z,102022.25
2022-11-08T13:53:47.730Z,102038.19
2022-11-08T13:57:23.779Z,102031.78
2022-11-08T14:00:50.597Z,102036.34
2022-11-08T14:03:43.105Z,102051.38
2022-11-08T14:06:33.687Z,102052.22
2022-11-08T14:09:50.829Z,102054.59
2022-11-08T14:12:50.858Z,102051.53
2022-11-08T14:15:38.952Z,102033.97
2022-11-08T14:18:25.237Z,102035.50
2022-11-08T14:21:05.487Z,102040.56
2022-11-08T14:23:42.676Z,102043.34
2022-11-08T14:26:32.598Z,102044.56
2022-11-08T14:29:05.694Z,102050.72
2022-11-08T14:31:39.026Z,102046.97
2022-11-08T14:34:41.204Z,102047.09
2022-11-08T14:37:50.479Z,102042.41
2022-11-08T14:41:07.722Z,102046.22
2022-11-08T14:44:03.565Z,102049.84
2022-11-08T14:47:41.127Z,102042.72
2022-11-08T14:50:49.922Z,102046.13
2022-11-08T14:53:51.567Z,102045.69
2022-11-08T14:57:02.789Z,102038.97
2022-11-08T14:59:47.259Z,102033.56
2022-11-08T15:02:49.889Z,102034.00
2022-11-08T15:06:01.707Z,102037.09
2022-11-08T15:08:43.933Z,102036.94
2022-11-08T15:12:00.395Z,102040.19
2022-11-08T15:14:47.722Z,102046.75
2022-11-08T15:17:50.993Z,102044.63
2022-11-08T15:21:10.404Z,102043.50
2022-11-08T15:23:49.475Z,102042.25
2022-11-08T15:27:43.549Z,102037.97
2022-11-08T15:30:45.648Z,102040.97
2022-11-08T15:33:39.038Z,102039.44
2022-11-08T15:36:35.801Z,102029.94
2022-11-08T15:39:09.368Z,102022.44
2022-11-08T15:41:54.890Z,102028.09
2022-11-08T15:45:17.932Z,102027.41
2022-11-08T15:47:51.804Z,102015.66
2022-11-08T15:50:34.625Z,102022.59
2022-11-08T15:53:09.664Z,102019.34
2022-11-08T15:56:06.942Z,102016.88
2022-11-08T15:59:03.033Z,102016.41
2022-11-08T16:01:42.285Z,102017.91
2022-11-08T16:04:47.834Z,102009.13
2022-11-08T16:07:27.830Z,102013.75
2022-11-08T16:10:18.834Z,102016.03
2022-11-08T16:12:51.093Z,102006.59
2022-11-08T16:15:31.475Z,102004.88
2022-11-08T16:18:07.219Z,102002.47
2022-11-08T16:20:40.942Z,102002.41
2022-11-08T16:23:15.576Z,101990.06
2022-11-08T16:25:55.381Z,101982.09
2022-11-08T16:28:39.427Z,101980.66
2022-11-08T16:31:19.866Z,101982.38
2022-11-08T16:34:01.524Z,101962.69
2022-11-08T16:36:31.356Z,101964.50
2022-11-08T16:39:05.692Z,101971.56
2022-11-08T16:41:43.016Z,101964.09
2022-11-08T16:47:39.897Z,101949.78
2022-11-08T16:50:29.570Z,101961.13
2022-11-08T16:53:03.169Z,101956.59
2022-11-08T16:55:34.729Z,101942.03
2022-11-08T16:58:07.241Z,101930.13
2022-11-08T17:01:15.407Z,101943.13
2022-11-08T17:04:10.046Z,101934.84
2022-11-08T17:06:39.671Z,101927.19
2022-11-08T17:09:17.627Z,101924.88
2022-11-08T17:11:51.325Z,101930.66
2022-11-08T17:14:21.402Z,101919.06
2022-11-08T17:16:56.998Z,101920.75
2022-11-08T17:19:55.779Z,101912.03
2022-11-08T17:22:39.670Z,101911.84
2022-11-08T17:29:30.159Z,101907.75
2022-11-08T17:32:03.148Z,101909.78
2022-11-08T17:35:50.087Z,101895.03
2022-11-08T17:39:07.179Z,101891.66
2022-11-08T17:41:39.289Z,101891.47
2022-11-08T17:44:15.665Z,101886.94
2022-11-08T17:46:50.737Z,101875.22
2022-11-08T17:49:23.110Z,101889.03
2022-11-08T17:51:54.534Z,101882.13
2022-11-08T17:54:27.582Z,101876.72
2022-11-08T17:57:07.799Z,101869.13
2022-11-08T17:59:39.327Z,101870.81
2022-11-08T18:02:16.209Z,101871.81
2022-11-08T18:04:51.379Z,101857.09
2022-11-08T18:07:22.502Z,101861.69
2022-11-08T18:09:54.244Z,101862.47
2022-11-08T18:12:31.226Z,101872.97
2022-11-08T18:15:39.933Z,101857.88
2022-11-08T18:18:34.644Z,101850.28
2022-11-08T18:21:09.272Z,101868.66
2022-11-08T18:23:45.250Z,101853.31
2022-11-08T18:26:18.552Z,101851.88
2022-11-08T18:28:48.597Z,101843.78
2022-11-08T18:31:22.957Z,101844.97
2022-11-08T18:34:02.500Z,101852.25
2022-11-08T18:36:35.159Z,101839.91
2022-11-08T18:39:06.825Z,101844.84
2022-11-08T18:41:42.965Z,101852.53
2022-11-08T18:44:18.351Z,101849.50
2022-11-08T18:46:50.007Z,101839.19
2022-11-08T18:49:22.682Z,101837.94
2022-11-08T18:51:57.164Z,101836.03
2022-11-08T18:54:45.324Z,101847.44
2022-11-08T18:57:19.286Z,101833.78
2022-11-08T19:00:10.636Z,101847.03
2022-11-08T19:02:42.342Z,101848.63
2022-11-08T19:05:11.387Z,101847.81
2022-11-08T19:09:03.303Z,101836.63
2022-11-08T19:11:47.457Z,101849.72
2022-11-08T19:14:21.801Z,101840.09
2022-11-08T19:17:03.559Z,101833.91
2022-11-08T19:19:42.491Z,101846.25
2022-11-08T19:22:14.230Z,101834.84
2022-11-08T19:24:44.092Z,101831.97
2022-11-08T19:27:51.484Z,101832.34
2022-11-08T19:30:38.536Z,101843.16
2022-11-08T19:33:11.986Z,101846.84
2022-11-08T19:35:55.578Z,101847.13
2022-11-08T19:38:43.135Z,101847.50
2022-11-08T19:41:23.111Z,101852.16
2022-11-08T19:44:00.017Z,101848.84
2022-11-08T19:46:34.964Z,101855.56
2022-11-08T19:49:06.767Z,101858.25
2022-11-08T19:51:39.708Z,101851.59
2022-11-08T19:54:19.109Z,101851.94
2022-11-08T19:58:02.707Z,101850.56
2022-11-08T20:01:25.933Z,101856.47
2022-11-08T20:05:34.648Z,101877.34
2022-11-08T20:09:38.007Z,101860.16
2022-11-08T20:12:24.866Z,101863.88
2022-11-08T20:15:34.307Z,101857.19
2022-11-08T20:20:46.322Z,101851.06
2022-11-08T20:25:07.935Z,101859.38
2022-11-08T20:27:50.389Z,101867.34
2022-11-08T20:31:22.750Z,101859.88
2022-11-08T20:34:21.393Z,101862.28
2022-11-08T20:36:55.003Z,101860.69
2022-11-08T20:45:25.663Z,101870.75
2022-11-08T20:48:37.715Z,101866.47
2022-11-08T20:51:09.710Z,101876.28
2022-11-08T20:54:15.665Z,101875.56
2022-11-08T21:00:13.092Z,101877.41
2022-11-08T21:02:51.454Z,101884.94
2022-11-08T21:06:23.919Z,101877.94
2022-11-08T21:09:34.512Z,101881.63
2022-11-08T21:12:13.889Z,101883.13
2022-11-08T21:14:47.964Z,101882.41
2022-11-08T21:17:37.673Z,101875.84
2022-11-08T21:20:09.738Z,101883.19
2022-11-08T21:22:42.165Z,101882.22
2022-11-08T21:25:35.967Z,101881.63
2022-11-08T21:28:43.544Z,101887.00
2022-11-08T21:31:20.630Z,101880.25
2022-11-08T21:37:43.822Z,101875.47
2022-11-08T21:40:18.560Z,101874.84
2022-11-08T21:43:22.932Z,101884.94
2022-11-08T21:46:16.961Z,101886.06
2022-11-08T21:49:05.474Z,101885.47
2022-11-08T21:51:40.957Z,101881.91
2022-11-08T21:57:17.279Z,101886.81
2022-11-08T21:59:47.562Z,101890.53
2022-11-08T22:02:18.573Z,101888.56
2022-11-08T22:04:47.904Z,101892.28
2022-11-08T22:07:19.087Z,101885.59
2022-11-08T22:09:50.987Z,101889.28
2022-11-08T22:12:32.283Z,101892.13
2022-11-08T22:15:05.561Z,101893.97
2022-11-08T22:17:42.903Z,101897.19
2022-11-08T22:20:23.472Z,101892.47
2022-11-08T22:23:08.715Z,101898.22
2022-11-08T22:25:44.061Z,101906.81
2022-11-08T22:28:17.989Z,101906.84
2022-11-08T22:32:06.177Z,101897.78
2022-11-08T22:35:14.530Z,101893.16
2022-11-08T22:37:45.556Z,101901.91
2022-11-08T22:40:21.956Z,101901.47
2022-11-08T22:42:52.066Z,101913.94
2022-11-08T22:45:28.043Z,101910.09
2022-11-08T22:48:07.715Z,101905.56
2022-11-08T22:50:42.185Z,101908.56
2022-11-08T22:53:13.654Z,101910.44
2022-11-08T22:55:47.140Z,101912.13
2022-11-08T22:58:17.805Z,101927.56
2022-11-08T23:00:47.995Z,101931.47
2022-11-08T23:03:22.107Z,101928.75
2022-11-08T23:06:01.637Z,101923.19
2022-11-08T23:08:33.569Z,101931.63
2022-11-08T23:11:34.195Z,101932.44
2022-11-08T23:14:24.088Z,101938.19
2022-11-08T23:17:03.126Z,101941.34
2022-11-08T23:20:01.451Z,101937.69
2022-11-08T23:22:55.064Z,101941.22
2022-11-08T23:25:43.924Z,101941.03
2022-11-08T23:28:35.014Z,101943.53
2022-11-08T23:31:35.554Z,101947.41
2022-11-08T23:34:08.695Z,101943.53
2022-11-08T23:36:40.034Z,101942.69
2022-11-08T23:39:16.743Z,101949.91
2022-11-08T23:42:19.248Z,101960.66
2022-11-08T23:45:04.069Z,101971.13
2022-11-08T23:47:35.622Z,101969.41
2022-11-08T23:50:12.142Z,101963.69
2022-11-08T23:52:46.812Z,101960.75
2022-11-08T23:55:18.422Z,101964.50
2022-11-08T23:57:53.425Z,101961.09
